Aberdeen, WA

3:40 PM PDT on March 25, 2017 (GMT -0700)
Think of Me Hill | | Change Station

Elev 72 ft 46.98 °N, 123.80 °W | Updated 8 minutes ago

Mostly Cloudy
Mostly Cloudy
49.3 °F
Feels Like 47 °F
N
5.0
Wind Variable Wind from West
Gusts 5.0 mph

Today
High -- | Low -- °F
--% Chance of Precip.
Yesterday
High -- | Low -- °F
Precip. -- in
Pressure 30.14 in
Visibility 8.0 miles
Clouds Mostly Cloudy 6500 ft
Windchill 47 °F
Dew Point 38 °F
Humidity 66%
Rainfall 0.23 in
Snow Depth Not available.
7:07 AM 7:35 PM
Waning Crescent, 6% visible
METAR KHQM 252153Z AUTO 22009KT 8SM BKN065 09/02 A3013 RMK AO2 SLP205 T00940022
Pressure 30.14 in
Visibility 8.0 miles
Clouds Mostly Cloudy 6500 ft
Windchill 47 °F
Dew Point 38 °F
Humidity 66%
Rainfall 0.23 in
Snow Depth Not available.
7:07 AM 7:35 PM
Waning Crescent, 6% visible
METAR KHQM 252153Z AUTO 22009KT 8SM BKN065 09/02 A3013 RMK AO2 SLP205 T00940022

Get Severe Weather Alerts

Thanks for signing up!

Be on the lookout for a verification email in your inbox.

You'll start receiving the daily forecast at 8 AM.

×

10-Day Weather Forecast

Almanac

Astronomy

Mar. 25, 2017 Rise Set
Actual Time
Civil Twilight
Nautical Twilight
Astronomical Twilight
Moon
Length of Visible Light
Length of Day
Tomorrow will be .
, % of the Moon is Illuminated

Today's Extremes

State Highs State Lows

Community

WunderPhotos

Upload Photos

1,962,540 photos uploaded!

WunderBlog® & News

Nearby

Air Quality

  Air Quality AQ Index Pollutant
Not available.

Snow Depth

Station Depth Elevation

Earthquake Activity

City Distance Mag. Time & Date
Minimum magnitude displayed is 2.5.

Earthquake Activity

City Distance Mag. Time & Date
Minimum magnitude displayed is 2.5.

Coastal Water Temperatures

Place Temperature

Stations

Nearby Weather Stations

Station Location Temp. Windchill Dew Point Humidity Wind Precip. Elev Updated Type
                   

Watches & Warnings

There are currently no watches in effect.